Dades meteomassalio
Diari Summary for Octubre 23, 2017 Units:  Metric    English   Both
« Previous Day
Next Day »
Diari Semanal Mensual Anual Personalitzat
  Maxima: Minima: Mijana:
Temperatura: -17.8 °C -15.9 °C -11.3 °C
Rosada: -17.8 °C -18.6 °C -15.9 °C
Humitat: Humidity % 32 % 59 %
Velocitat del vent: 0 km/h 0 km/h 17.7 km/h
Racha vent: 0 km/h - -
Vent:- - SSW
Pressio: 0 hPa 34750.5 hPa -
Pluja: 0 mm    
Historical Graphs
 
 
Tabular Data for Octubre 23, 2017
Time Temperature Dew Point Pressure Wind Wind Speed Wind Gust Humidity Rainfall Rate (Hourly) solar Conditions
-17.8 °C -17.8 °C 0 hPa Calm     Humidity % 0 mm SolarRadiationWatts/m^2 W/m2 Conditions
00:03 -11.9 °C -15.2 °C 34852.1 hPa SSW 32.8 km/h 32.8 km/h 67 % 0 mm 0.0 W/m2 CLR
00:08 -11.9 °C -15.2 °C 34865.6 hPa SSW 32.8 km/h 32.8 km/h 67 % 0 mm 0.0 W/m2 CLR
00:13 -11.3 °C -14.6 °C 34852.1 hPa South 38.8 km/h 38.8 km/h 67 % 0 mm 0.0 W/m2 CLR
00:18 -11.6 °C -14.8 °C 34852.1 hPa South 29.8 km/h 29.8 km/h 68 % 0 mm 0.0 W/m2 CLR
00:23 -11.6 °C -14.8 °C 34852.1 hPa SSW 29.8 km/h 29.8 km/h 68 % 0 mm 0.0 W/m2 CLR
00:28 -11.6 °C -14.8 °C 34852.1 hPa SSE 32.8 km/h 32.8 km/h 68 % 0 mm 0.0 W/m2 CLR
00:33 -11.9 °C -15.1 °C 34852.1 hPa South 29.8 km/h 29.8 km/h 68 % 0 mm 0.0 W/m2 CLR
00:38 -11.9 °C -15.1 °C 34852.1 hPa South 29.8 km/h 29.8 km/h 68 % 0 mm 0.0 W/m2 CLR
00:43 -11.9 °C -15.1 °C 34852.1 hPa South 29.8 km/h 29.8 km/h 68 % 0 mm 0.0 W/m2 CLR
00:48 -11.9 °C -15.1 °C 34852.1 hPa SSW 26.9 km/h 26.9 km/h 68 % 0 mm 0.0 W/m2 CLR
00:53 -11.9 °C -15.1 °C 34852.1 hPa South 29.8 km/h 29.8 km/h 68 % 0 mm 0.0 W/m2 CLR
00:58 -11.6 °C -14.8 °C 34852.1 hPa SE 23.8 km/h 23.8 km/h 68 % 0 mm 0.0 W/m2 CLR
01:03 -11.3 °C -14.5 °C 34865.6 hPa SSE 9 km/h 9 km/h 68 % 0 mm 0.0 W/m2 CLR
01:08 -11 °C -14.2 °C 34852.1 hPa SSE 12.9 km/h 12.9 km/h 68 % 0 mm 0.0 W/m2 CLR
01:13 -11 °C -14.2 °C 34852.1 hPa South 15 km/h 15 km/h 68 % 0 mm 0.0 W/m2 CLR
01:18 -11.3 °C -14.3 °C 34852.1 hPa SSW 17.9 km/h 17.9 km/h 69 % 0 mm 0.0 W/m2 CLR
01:23 -11.3 °C -14.3 °C 34841.9 hPa SSW 23.3 km/h 23.3 km/h 69 % 0 mm 0.0 W/m2 CLR
01:28 -11.6 °C -14.6 °C 34841.9 hPa SSW 29.8 km/h 29.8 km/h 70 % 0 mm 0.0 W/m2 CLR
01:33 -11.6 °C -14.7 °C 34841.9 hPa SSW 26.9 km/h 26.9 km/h 69 % 0 mm 0.0 W/m2 CLR
01:38 -11.6 °C -14.7 °C 34841.9 hPa South 29.8 km/h 29.8 km/h 69 % 0 mm 0.0 W/m2 CLR
01:43 -11.6 °C -14.7 °C 34841.9 hPa South 38.8 km/h 38.8 km/h 69 % 0 mm 0.0 W/m2 CLR
01:48 -11.3 °C -14.5 °C 34841.9 hPa SE 20.9 km/h 20.9 km/h 68 % 0 mm 0.0 W/m2 CLR
01:53 -11.3 °C -14.3 °C 34841.9 hPa South 15 km/h 15 km/h 69 % 0 mm 0.0 W/m2 CLR
01:58 -11.3 °C -14.2 °C 34841.9 hPa South 26.9 km/h 26.9 km/h 70 % 0 mm 0.0 W/m2 CLR
02:03 -11.6 °C -14.6 °C 34841.9 hPa South 20.9 km/h 20.9 km/h 70 % 0 mm 0.0 W/m2 CLR
02:08 -11.6 °C -14.6 °C 34841.9 hPa SSE 11.9 km/h 11.9 km/h 70 % 0 mm 0.0 W/m2 CLR
02:13 -11.9 °C -14.8 °C 34841.9 hPa South 17.9 km/h 17.9 km/h 70 % 0 mm 0.0 W/m2 CLR
02:18 -11.9 °C -14.7 °C 34841.9 hPa SSW 23.8 km/h 23.8 km/h 71 % 0 mm 0.0 W/m2 CLR
02:23 -11.9 °C -14.7 °C 34841.9 hPa SSW 29.8 km/h 29.8 km/h 71 % 0 mm 0.0 W/m2 CLR
02:28 -11.9 °C -14.8 °C 34841.9 hPa South 26.9 km/h 26.9 km/h 70 % 0 mm 0.0 W/m2 CLR
02:33 -11.9 °C -14.7 °C 34831.8 hPa SSW 20.9 km/h 20.9 km/h 71 % 0 mm 0.0 W/m2 CLR
02:38 -11.9 °C -14.7 °C 34831.8 hPa SSE 20.9 km/h 20.9 km/h 71 % 0 mm 0.0 W/m2 CLR
02:43 -11.9 °C -14.7 °C 34831.8 hPa South 29.8 km/h 29.8 km/h 71 % 0 mm 0.0 W/m2 CLR
02:48 -11.9 °C -14.7 °C 34831.8 hPa SSW 20.9 km/h 20.9 km/h 71 % 0 mm 0.0 W/m2 CLR
02:53 -12.2 °C -15 °C 34831.8 hPa SSE 23.8 km/h 23.8 km/h 71 % 0 mm 0.0 W/m2 CLR
02:58 -12.2 °C -15 °C 34831.8 hPa South 15 km/h 15 km/h 71 % 0 mm 0.0 W/m2 CLR
03:03 -12.2 °C -14.9 °C 34831.8 hPa South 29.8 km/h 29.8 km/h 72 % 0 mm 0.0 W/m2 CLR
03:08 -12.6 °C -15.3 °C 34831.8 hPa South 32.8 km/h 32.8 km/h 71 % 0 mm 0.0 W/m2 CLR
03:09 -12.6 °C -15.3 °C 34831.8 hPa South 29.8 km/h 29.8 km/h 71 % 0 mm 0.0 W/m2 CLR
03:14 -12.6 °C -15.3 °C 34831.8 hPa South 26.9 km/h 26.9 km/h 71 % 0 mm 0.0 W/m2 CLR
03:19 -12.2 °C -15 °C 34831.8 hPa SSW 26.9 km/h 26.9 km/h 71 % 0 mm 0.0 W/m2 CLR
03:24 -12.2 °C -15 °C 34831.8 hPa SSW 20.9 km/h 20.9 km/h 71 % 0 mm 0.0 W/m2 CLR
03:29 -12.2 °C -14.9 °C 34831.8 hPa SSW 26.9 km/h 26.9 km/h 72 % 0 mm 0.0 W/m2 CLR
03:34 -12.2 °C -14.9 °C 34831.8 hPa SSW 26.9 km/h 26.9 km/h 72 % 0 mm 0.0 W/m2 CLR
03:39 -12.2 °C -15 °C 34831.8 hPa South 23.8 km/h 23.8 km/h 71 % 0 mm 0.0 W/m2 CLR
03:44 -12.2 °C -14.9 °C 34831.8 hPa SSW 26.9 km/h 26.9 km/h 72 % 0 mm 0.0 W/m2 CLR
03:49 -12.6 °C -15.2 °C 34831.8 hPa South 23.8 km/h 23.8 km/h 72 % 0 mm 0.0 W/m2 CLR
03:54 -12.6 °C -15.2 °C 34831.8 hPa South 26.9 km/h 26.9 km/h 72 % 0 mm 0.0 W/m2 CLR
03:59 -12.6 °C -15.2 °C 34831.8 hPa South 23.3 km/h 23.3 km/h 72 % 0 mm 0.0 W/m2 CLR
04:04 -12.6 °C -15.2 °C 34831.8 hPa South 26.9 km/h 26.9 km/h 72 % 0 mm 0.0 W/m2 CLR
04:09 -12.6 °C -15.2 °C 34831.8 hPa South 20.9 km/h 20.9 km/h 72 % 0 mm 0.0 W/m2 CLR
04:14 -12.8 °C -15.5 °C 34831.8 hPa South 23.8 km/h 23.8 km/h 72 % 0 mm 0.0 W/m2 CLR
04:19 -12.8 °C -15.6 °C 34831.8 hPa SSW 20.9 km/h 20.9 km/h 71 % 0 mm 0.0 W/m2 CLR
04:24 -12.8 °C -15.6 °C 34831.8 hPa SSW 20.9 km/h 20.9 km/h 71 % 0 mm 0.0 W/m2 CLR
04:29 -12.8 °C -15.7 °C 34831.8 hPa South 17.9 km/h 17.9 km/h 70 % 0 mm 0.0 W/m2 CLR
04:34 -12.8 °C -15.7 °C 34841.9 hPa SSE 17.9 km/h 17.9 km/h 70 % 0 mm 0.0 W/m2 CLR
04:39 -13.2 °C -16 °C 34831.8 hPa SSW 17.9 km/h 17.9 km/h 70 % 0 mm 0.0 W/m2 CLR
04:44 -13.2 °C -16 °C 34831.8 hPa SSW 15 km/h 15 km/h 70 % 0 mm 0.0 W/m2 CLR
04:49 -13.4 °C -16.3 °C 34831.8 hPa South 20.9 km/h 20.9 km/h 70 % 0 mm 0.0 W/m2 CLR
04:54 -13.4 °C -16.3 °C 34841.9 hPa South 15.6 km/h 15.6 km/h 70 % 0 mm 0.0 W/m2 CLR
04:59 -13.8 °C -16.6 °C 34841.9 hPa SSE 15 km/h 15 km/h 70 % 0 mm 0.0 W/m2 CLR
05:04 -13.8 °C -16.5 °C 34831.8 hPa South 11.9 km/h 11.9 km/h 71 % 0 mm 0.0 W/m2 CLR
05:09 -14.1 °C -16.7 °C 34831.8 hPa South 12.9 km/h 12.9 km/h 72 % 0 mm 0.0 W/m2 CLR
05:14 -14.1 °C -16.7 °C 34831.8 hPa South 15 km/h 15 km/h 72 % 0 mm 0.0 W/m2 CLR
05:19 -14.4 °C -17 °C 34831.8 hPa SSE 11.9 km/h 11.9 km/h 72 % 0 mm 0.0 W/m2 CLR
05:20 -14.4 °C -17 °C 34831.8 hPa SSE 12.9 km/h 12.9 km/h 72 % 0 mm 0.0 W/m2 CLR
05:25 -14.4 °C -16.9 °C 34831.8 hPa SSE 15.6 km/h 15.6 km/h 73 % 0 mm 0.0 W/m2 CLR
05:30 -14.7 °C -17.1 °C 34831.8 hPa South 23.8 km/h 23.8 km/h 74 % 0 mm 0.0 W/m2 CLR
05:35 -14.7 °C -17.1 °C 34831.8 hPa South 15 km/h 15 km/h 74 % 0 mm 0.0 W/m2 CLR
05:40 -14.7 °C -17.1 °C 34831.8 hPa South 15 km/h 15 km/h 74 % 0 mm 0.0 W/m2 CLR
05:45 -15 °C -17.4 °C 34831.8 hPa South 15 km/h 15 km/h 74 % 0 mm 0.0 W/m2 CLR
05:50 -15 °C -17.4 °C 34831.8 hPa South 12.9 km/h 12.9 km/h 74 % 0 mm 0.0 W/m2 CLR
05:55 -15 °C -17.3 °C 34831.8 hPa SSW 17.9 km/h 17.9 km/h 75 % 0 mm 0.0 W/m2 CLR
06:00 -15 °C -17.4 °C 34841.9 hPa South 15 km/h 15 km/h 74 % 0 mm 0.0 W/m2 CLR
06:05 -15 °C -17.4 °C 34831.8 hPa SSE 12.9 km/h 12.9 km/h 73 % 0 mm 0.0 W/m2 CLR
06:10 -15 °C -17.4 °C 34841.9 hPa SSE 11.9 km/h 11.9 km/h 73 % 0 mm 0.0 W/m2 CLR
06:15 -15 °C -17.4 °C 34841.9 hPa SSE 12.9 km/h 12.9 km/h 73 % 0 mm 0.0 W/m2 CLR
06:20 -15 °C -17.2 °C 34841.9 hPa South 18.2 km/h 18.2 km/h 76 % 0 mm 0.0 W/m2 CLR
06:25 -15 °C -17.2 °C 34841.9 hPa South 20.9 km/h 20.9 km/h 76 % 0 mm 0.0 W/m2 CLR
06:30 -15 °C -17.3 °C 34841.9 hPa SSE 12.9 km/h 12.9 km/h 75 % 0 mm 0.0 W/m2 CLR
06:35 -15 °C -17.3 °C 34841.9 hPa SSE 15 km/h 15 km/h 75 % 0 mm 0.0 W/m2 CLR
06:40 -15.3 °C -17.4 °C 34841.9 hPa South 18.2 km/h 18.2 km/h 76 % 0 mm 0.0 W/m2 CLR
06:45 -15.3 °C -17.3 °C 34841.9 hPa South 20.9 km/h 20.9 km/h 78 % 0 mm 0.0 W/m2 CLR
06:50 -15.3 °C -17.4 °C 34841.9 hPa South 15 km/h 15 km/h 76 % 0 mm 0.0 W/m2 CLR
06:55 -15.3 °C -17.4 °C 34831.8 hPa South 15.6 km/h 15.6 km/h 76 % 0 mm 0.0 W/m2 CLR
07:00 -15.3 °C -17.3 °C 34831.8 hPa South 17.9 km/h 17.9 km/h 77 % 0 mm 0.0 W/m2 CLR
07:05 -15.6 °C -17.7 °C 34831.8 hPa South 17.9 km/h 17.9 km/h 76 % 0 mm 0.0 W/m2 CLR
07:10 -15.6 °C -18.1 °C 34831.8 hPa South 6 km/h   73 % 0 mm 0.0 W/m2 CLR
07:15 -15.6 °C -17.9 °C 34831.8 hPa Calm     74 % 0 mm 0.0 W/m2 CLR
07:20 -15.6 °C -17.7 °C 34841.9 hPa South 5.1 km/h 5.1 km/h 76 % 0 mm 0.0 W/m2 CLR
07:25 -15.6 °C -17.3 °C 34841.9 hPa South 20.9 km/h 20.9 km/h 80 % 0 mm 0.0 W/m2 CLR
07:30 -15.6 °C -17.6 °C 34841.9 hPa South 17.9 km/h 17.9 km/h 78 % 0 mm 0.0 W/m2 CLR
07:35 -15.6 °C -17.7 °C 34841.9 hPa Calm     76 % 0 mm 0.0 W/m2 CLR
07:40 -15.6 °C -17.7 °C 34841.9 hPa Calm     77 % 0 mm 0.0 W/m2 CLR
07:45 -15.6 °C -17.4 °C 34841.9 hPa Calm     79 % 0 mm 0.0 W/m2 CLR
07:50 -15.6 °C -17.3 °C 34841.9 hPa Calm     80 % 0 mm 0.0 W/m2 CLR
07:55 -15.6 °C -17.3 °C 34841.9 hPa Calm     81 % 0 mm 0.0 W/m2 CLR
08:00 -15.6 °C -17.3 °C 34841.9 hPa Calm     81 % 0 mm 0.0 W/m2 CLR
08:05 -15.6 °C -17.3 °C 34841.9 hPa Calm     81 % 0 mm 0.0 W/m2 CLR
08:10 -15.6 °C -17.3 °C 34841.9 hPa Calm     81 % 0 mm 0.0 W/m2 CLR
08:15 -15.6 °C -17.3 °C 34841.9 hPa Calm     81 % 0 mm 0.0 W/m2 OVC
08:20 -15.6 °C -17.1 °C 34841.9 hPa SSE 12.9 km/h 12.9 km/h 83 % 0 mm 0.0 W/m2 OVC
08:25 -15.9 °C -17.4 °C 34841.9 hPa Calm     82 % 0 mm 7.0 W/m2 BKN
08:30 -15.9 °C -17.4 °C 34841.9 hPa Calm     82 % 0 mm 9.0 W/m2 BKN
08:35 -15.9 °C -17.4 °C 34841.9 hPa Calm     83 % 0 mm 12.0 W/m2 BKN
08:40 -15.9 °C -17.4 °C 34841.9 hPa SSE 9 km/h 9 km/h 83 % 0 mm 14.0 W/m2 BKN
08:45 -15.9 °C -17.4 °C 34841.9 hPa Calm     83 % 0 mm 16.0 W/m2 BKN
08:50 -15.9 °C -17.4 °C 34852.1 hPa Calm     83 % 0 mm 21.0 W/m2 BKN
09:00 -15.9 °C -17.4 °C 34841.9 hPa Calm     83 % 0 mm 37.0 W/m2 BKN
09:05 -15.9 °C -17.4 °C 34852.1 hPa Calm     82 % 0 mm 46.0 W/m2 BKN
09:10 -15.9 °C -17.7 °C 34852.1 hPa Calm     80 % 0 mm 54.0 W/m2 SCT
09:15 -15.6 °C -17.4 °C 34852.1 hPa Calm     79 % 0 mm 79.0 W/m2 FEW
09:20 -15.6 °C -17.7 °C 34852.1 hPa Calm     77 % 0 mm 79.0 W/m2 CLR
09:25 -15.3 °C -17.4 °C 34852.1 hPa Calm     76 % 0 mm 113.0 W/m2 CLR
09:30 -15.3 °C -17.4 °C 34852.1 hPa Calm     76 % 0 mm 127.0 W/m2 CLR
09:31 -15.3 °C -17.4 °C 34852.1 hPa Calm     76 % 0 mm 134.0 W/m2 CLR
09:36 -15 °C -17.3 °C 34852.1 hPa Calm     75 % 0 mm 149.0 W/m2 CLR
09:41 -14.7 °C -17.1 °C 34865.6 hPa Calm     74 % 0 mm 167.0 W/m2 CLR
09:46 -14.4 °C -16.9 °C 34865.6 hPa Calm     73 % 0 mm 111.0 W/m2 CLR
09:51 -13.8 °C -16.4 °C 34865.6 hPa Calm     72 % 0 mm 204.0 W/m2 CLR
09:56 -13.2 °C -15.9 °C 34865.6 hPa Calm     71 % 0 mm 220.0 W/m2 CLR
10:01 -12.8 °C -15.6 °C 34875.8 hPa Calm     71 % 0 mm 236.0 W/m2 CLR
10:06 -12.6 °C -15.4 °C 34865.6 hPa Calm     70 % 0 mm 246.0 W/m2 CLR
10:11 -12.2 °C -15.4 °C 34875.8 hPa South 29.8 km/h 29.8 km/h 67 % 0 mm 264.0 W/m2 CLR
10:16 -11.9 °C -15.3 °C 34875.8 hPa SW 29.8 km/h 29.8 km/h 66 % 0 mm 279.0 W/m2 CLR
10:21 -11.3 °C -14.7 °C 34875.8 hPa SW 26.9 km/h 26.9 km/h 66 % 0 mm 294.0 W/m2 CLR
10:26 -11 °C -14.6 °C 34865.6 hPa WSW 31.1 km/h 31.1 km/h 65 % 0 mm 306.0 W/m2 CLR
10:31 -10.7 °C -14.4 °C 34875.8 hPa SSW 31.1 km/h 31.1 km/h 64 % 0 mm 320.0 W/m2 CLR
10:36 -10.7 °C -14.4 °C 34875.8 hPa SW 31.1 km/h 31.1 km/h 64 % 0 mm 334.0 W/m2 CLR
10:41 -10.4 °C -14.1 °C 34875.8 hPa SW 35.7 km/h 35.7 km/h 64 % 0 mm 348.0 W/m2 CLR
10:46 -10.4 °C -14.2 °C 34865.6 hPa SW 29.8 km/h 29.8 km/h 63 % 0 mm 359.0 W/m2 CLR
10:51 -10.4 °C -14.3 °C 34865.6 hPa SW 41.4 km/h 41.4 km/h 62 % 0 mm 371.0 W/m2 CLR
10:56 -10.1 °C -14.1 °C 34875.8 hPa SW 44.1 km/h 44.1 km/h 62 % 0 mm 381.0 W/m2 CLR
11:01 -10.1 °C -14.1 °C 34875.8 hPa SW 38.8 km/h 38.8 km/h 62 % 0 mm 396.0 W/m2 CLR
11:06 -10.1 °C -14.1 °C 34875.8 hPa SW 29.8 km/h 29.8 km/h 62 % 0 mm 406.0 W/m2 CLR
11:11 -10.1 °C -14.2 °C 34875.8 hPa SW 33.6 km/h 33.6 km/h 61 % 0 mm 418.0 W/m2 CLR
11:12 -10.1 °C -14.2 °C 34875.8 hPa SW 41.7 km/h 41.7 km/h 61 % 0 mm 420.0 W/m2 CLR
11:17 -10.1 °C -14.2 °C 34875.8 hPa SSW 26.9 km/h 26.9 km/h 61 % 0 mm 432.0 W/m2 CLR
11:22 -9.8 °C -13.9 °C 34875.8 hPa SSW 32.8 km/h 32.8 km/h 61 % 0 mm 443.0 W/m2 CLR
11:27 -9.8 °C -14 °C 34875.8 hPa WSW 31.1 km/h 31.1 km/h 60 % 0 mm 455.0 W/m2 CLR
11:32 -9.8 °C -14 °C 34875.8 hPa SW 32.8 km/h 32.8 km/h 60 % 0 mm 464.0 W/m2 CLR
11:33 -9.8 °C -14 °C 34875.8 hPa WSW 38.8 km/h 38.8 km/h 60 % 0 mm 466.0 W/m2 CLR
11:38 -9.8 °C -14 °C 34875.8 hPa SW 38.8 km/h 38.8 km/h 60 % 0 mm 476.0 W/m2 CLR
11:43 -9.8 °C -14 °C 34875.8 hPa WSW 29.8 km/h 29.8 km/h 60 % 0 mm 487.0 W/m2 CLR
11:48 -9.4 °C -13.8 °C 34865.6 hPa WSW 29.8 km/h 29.8 km/h 59 % 0 mm 496.0 W/m2 CLR
11:53 -9.4 °C -14 °C 34865.6 hPa SSW 29.8 km/h 29.8 km/h 58 % 0 mm 503.0 W/m2 CLR
11:58 -9.4 °C -13.8 °C 34865.6 hPa SW 29.8 km/h 29.8 km/h 59 % 0 mm 513.0 W/m2 CLR
12:03 -9.4 °C -14.1 °C 34865.6 hPa SW 29.8 km/h 31.1 km/h 57 % 0 mm 520.0 W/m2 CLR
12:08 -9.1 °C -14.1 °C 34865.6 hPa SSW 32.8 km/h 32.8 km/h 55 % 0 mm 526.0 W/m2 CLR
12:13 -9.1 °C -14 °C 34865.6 hPa SW 26.9 km/h 26.9 km/h 56 % 0 mm 534.0 W/m2 CLR
12:18 -8.8 °C -14 °C 34865.6 hPa SW 47.6 km/h 47.6 km/h 54 % 0 mm 545.0 W/m2 CLR
12:23 -8.5 °C -13.8 °C 34865.6 hPa SW 26.9 km/h 26.9 km/h 53 % 0 mm 548.0 W/m2 CLR
12:24 -8.8 °C -14.2 °C 34852.1 hPa SSW 35.7 km/h 35.7 km/h 53 % 0 mm 550.0 W/m2 CLR
12:29 -8.8 °C -14 °C 34852.1 hPa SW 29.8 km/h 29.8 km/h 54 % 0 mm 555.0 W/m2 CLR
12:34 -8.5 °C -14 °C 34852.1 hPa SSW 23.8 km/h 23.8 km/h 52 % 0 mm 563.0 W/m2 CLR
12:39 -8.5 °C -14.2 °C 34852.1 hPa SW 32.8 km/h 32.8 km/h 51 % 0 mm 570.0 W/m2 CLR
12:44 -8.2 °C -13.9 °C 34852.1 hPa WSW 35.7 km/h 35.7 km/h 51 % 0 mm 573.0 W/m2 CLR
12:50 -8.2 °C -14.1 °C 34841.9 hPa SSW 35.7 km/h 35.7 km/h 50 % 0 mm 577.0 W/m2 CLR
12:55 -8.2 °C -14.2 °C 34841.9 hPa WSW 32.8 km/h 32.8 km/h 49 % 0 mm 582.0 W/m2 CLR
13:00 -7.9 °C -14.1 °C 34841.9 hPa West 38.8 km/h 38.8 km/h 48 % 0 mm 584.0 W/m2 CLR
13:05 -7.9 °C -14.1 °C 34831.8 hPa SSW 32.8 km/h 32.8 km/h 48 % 0 mm 591.0 W/m2 CLR
13:10 -7.9 °C -14.3 °C 34831.8 hPa WSW 29.8 km/h 29.8 km/h 47 % 0 mm 594.0 W/m2 CLR
13:15 -7.9 °C -14.3 °C 34831.8 hPa SW 35.7 km/h 35.7 km/h 47 % 0 mm 596.0 W/m2 CLR
13:20 -7.9 °C -14.4 °C 34831.8 hPa SW 29.8 km/h 29.8 km/h 46 % 0 mm 599.0 W/m2 CLR
13:25 -7.6 °C -14.3 °C 34831.8 hPa SW 26.9 km/h 26.9 km/h 45 % 0 mm 599.0 W/m2 CLR
13:30 -7.6 °C -14.3 °C 34831.8 hPa SSW 32.8 km/h 32.8 km/h 45 % 0 mm 601.0 W/m2 CLR
13:35 -7.6 °C -14.3 °C 34831.8 hPa WSW 29.8 km/h 29.8 km/h 45 % 0 mm 605.0 W/m2 CLR
13:40 -7.3 °C -14.1 °C 34831.8 hPa SW 33.6 km/h 33.6 km/h 45 % 0 mm 605.0 W/m2 CLR
13:45 -7.6 °C -14.6 °C 34818.2 hPa SSW 29.8 km/h 29.8 km/h 44 % 0 mm 603.0 W/m2 CLR
13:50 -7 °C -13.9 °C 34818.2 hPa SW 29.8 km/h 29.8 km/h 44 % 0 mm 605.0 W/m2 CLR
13:55 -7 °C -14.1 °C 34818.2 hPa SW 38.8 km/h 38.8 km/h 43 % 0 mm 603.0 W/m2 CLR
14:00 -7 °C -14.1 °C 34818.2 hPa WSW 38.8 km/h 38.8 km/h 43 % 0 mm 605.0 W/m2 CLR
14:05 -7 °C -14.1 °C 34808.1 hPa WSW 32.8 km/h 32.8 km/h 43 % 0 mm 601.0 W/m2 CLR
14:10 -7.3 °C -14.4 °C 34808.1 hPa SW 23.8 km/h 23.8 km/h 43 % 0 mm 599.0 W/m2 CLR
14:15 -7 °C -14.1 °C 34808.1 hPa SSW 35.7 km/h 35.7 km/h 43 % 0 mm 599.0 W/m2 CLR
14:20 -7 °C -14.6 °C 34797.9 hPa West 20.9 km/h 20.9 km/h 41 % 0 mm 598.0 W/m2 CLR
14:25 -7.3 °C -15.2 °C 34797.9 hPa SSW 35.7 km/h 35.7 km/h 39 % 0 mm 594.0 W/m2 CLR
14:30 -7 °C -14.9 °C 34797.9 hPa SW 32.8 km/h 32.8 km/h 39 % 0 mm 592.0 W/m2 CLR
14:35 -6.7 °C -14.4 °C 34784.4 hPa South 11.9 km/h 11.9 km/h 40 % 0 mm 585.0 W/m2 CLR
14:40 -6.7 °C -14.7 °C 34797.9 hPa South 29.8 km/h 29.8 km/h 39 % 0 mm 580.0 W/m2 CLR
14:45 -7 °C -14.7 °C 34797.9 hPa SW 31.1 km/h 31.1 km/h 40 % 0 mm 577.0 W/m2 CLR
14:50 -6.7 °C -14.7 °C 34784.4 hPa West 32.8 km/h 32.8 km/h 39 % 0 mm 571.0 W/m2 CLR
14:55 -6.7 °C -14.7 °C 34784.4 hPa SW 28.5 km/h 28.5 km/h 39 % 0 mm 566.0 W/m2 CLR
15:00 -6.7 °C -14.7 °C 34784.4 hPa WSW 28.5 km/h 28.5 km/h 39 % 0 mm 561.0 W/m2 CLR
15:05 -6.7 °C -14.7 °C 34784.4 hPa SW 29.8 km/h 29.8 km/h 39 % 0 mm 555.0 W/m2 CLR
15:10 -6.7 °C -14.9 °C 34784.4 hPa SW 23.8 km/h 24.1 km/h 38 % 0 mm 550.0 W/m2 CLR
15:15 -6.3 °C -14.4 °C 34774.2 hPa SW 20.8 km/h 20.8 km/h 39 % 0 mm 543.0 W/m2 CLR
15:20 -6.3 °C -14.6 °C 34774.2 hPa SW 23.8 km/h 23.8 km/h 38 % 0 mm 534.0 W/m2 CLR
15:25 -6.3 °C -14.4 °C 34774.2 hPa WSW 9 km/h 9 km/h 39 % 0 mm 529.0 W/m2 CLR
15:30 -6.7 °C -14.9 °C 34774.2 hPa SW 29.8 km/h 29.8 km/h 38 % 0 mm 520.0 W/m2 CLR
15:35 -6.3 °C -14.4 °C 34774.2 hPa SSW 11.9 km/h 11.9 km/h 39 % 0 mm 513.0 W/m2 CLR
15:40 -6.3 °C -14.8 °C 34774.2 hPa WSW 23.8 km/h 23.8 km/h 37 % 0 mm 506.0 W/m2 CLR
15:45 -6.3 °C -14.6 °C 34760.7 hPa SW 26.9 km/h 26.9 km/h 38 % 0 mm 494.0 W/m2 CLR
15:50 -6.3 °C -15.1 °C 34760.7 hPa WSW 38.8 km/h 38.8 km/h 36 % 0 mm 485.0 W/m2 CLR
15:55 -6.3 °C -15.2 °C 34760.7 hPa West 35.7 km/h 35.7 km/h 35 % 0 mm 478.0 W/m2 CLR
16:00 -6.3 °C -15.2 °C 34760.7 hPa SW 35.7 km/h 35.7 km/h 35 % 0 mm 466.0 W/m2 CLR
16:05 -6.3 °C -15.1 °C 34760.7 hPa SW 35.7 km/h 35.7 km/h 36 % 0 mm 455.0 W/m2 CLR
16:10 -6.3 °C -15.1 °C 34760.7 hPa WSW 29.8 km/h 29.8 km/h 36 % 0 mm 445.0 W/m2 CLR
16:11 -6.3 °C -15.1 °C 34760.7 hPa WSW 29.8 km/h 29.8 km/h 36 % 0 mm 445.0 W/m2 CLR
16:16 -6.3 °C -15.1 °C 34760.7 hPa SSW 29.8 km/h 29.8 km/h 36 % 0 mm 432.0 W/m2 CLR
16:21 -6.1 °C -14.8 °C 34760.7 hPa WNW 29.8 km/h 29.8 km/h 36 % 0 mm 424.0 W/m2 CLR
16:26 -6.3 °C -15.5 °C 34750.5 hPa WSW 33.6 km/h 33.6 km/h 34 % 0 mm 411.0 W/m2 CLR
16:31 -6.3 °C -15.5 °C 34750.5 hPa WSW 32.8 km/h 32.8 km/h 34 % 0 mm 396.0 W/m2 CLR
16:36 -6.3 °C -15.5 °C 34750.5 hPa WSW 32.8 km/h 32.8 km/h 34 % 0 mm 385.0 W/m2 CLR
16:41 -6.3 °C -15.5 °C 34750.5 hPa West 35.7 km/h 35.7 km/h 34 % 0 mm 373.0 W/m2 CLR
16:46 -6.3 °C -15.5 °C 34750.5 hPa West 35.7 km/h 35.7 km/h 34 % 0 mm 359.0 W/m2 CLR
16:51 -6.3 °C -15.5 °C 34750.5 hPa WSW 41.7 km/h 41.7 km/h 34 % 0 mm 350.0 W/m2 CLR
16:56 -6.3 °C -15.5 °C 34750.5 hPa SW 32.8 km/h 32.8 km/h 34 % 0 mm 334.0 W/m2 CLR
17:01 -6.3 °C -15.7 °C 34750.5 hPa West 26.9 km/h 26.9 km/h 33 % 0 mm 322.0 W/m2 CLR
17:06 -6.3 °C -15.9 °C 34750.5 hPa SW 50.7 km/h 50.7 km/h 32 % 0 mm 309.0 W/m2 CLR
17:11 -6.3 °C -15.7 °C 34750.5 hPa WSW 29.8 km/h 29.8 km/h 33 % 0 mm 294.0 W/m2 CLR
17:16 -6.3 °C -15.5 °C 34750.5 hPa West 31.1 km/h 31.1 km/h 34 % 0 mm 281.0 W/m2 CLR
17:21 -6.7 °C -15.7 °C 34750.5 hPa West 33.6 km/h 33.6 km/h 34 % 0 mm 267.0 W/m2 CLR
17:26 -6.7 °C -15.7 °C 34750.5 hPa West 32.8 km/h 32.8 km/h 34 % 0 mm 251.0 W/m2 CLR
17:31 -7 °C -15.8 °C 34750.5 hPa SW 29.8 km/h 29.8 km/h 35 % 0 mm 232.0 W/m2 CLR
17:36 -6.7 °C -15.5 °C 34750.5 hPa WSW 26.9 km/h 26.9 km/h 35 % 0 mm 214.0 W/m2 CLR
17:41 -7 °C -15.8 °C 34750.5 hPa WSW 29.8 km/h 29.8 km/h 35 % 0 mm 199.0 W/m2 CLR
17:46 -7 °C -15.8 °C 34750.5 hPa WSW 23.8 km/h 23.8 km/h 35 % 0 mm 181.0 W/m2 CLR
17:51 -7 °C -15.6 °C 34750.5 hPa WSW 29.8 km/h 29.8 km/h 36 % 0 mm 162.0 W/m2 CLR
17:56 -7 °C -15.8 °C 34750.5 hPa WSW 29.8 km/h 30.6 km/h 35 % 0 mm 151.0 W/m2 CLR
18:01 -7 °C -15.6 °C 34750.5 hPa SW 32.8 km/h 32.8 km/h 36 % 0 mm 130.0 W/m2 CLR
18:06 -7.3 °C -15.6 °C 34750.5 hPa SW 23.8 km/h 23.8 km/h 37 % 0 mm 113.0 W/m2 CLR
18:11 -7.3 °C -15.8 °C 34750.5 hPa SW 35.7 km/h 35.7 km/h 36 % 0 mm 100.0 W/m2 CLR
18:16 -7.3 °C -15.6 °C 34750.5 hPa SSW 17.9 km/h 17.9 km/h 37 % 0 mm 79.0 W/m2 FEW
18:21 -7.3 °C -15.6 °C 34750.5 hPa SW 3.1 km/h   37 % 0 mm 58.0 W/m2 SCT
18:26 -7.3 °C -15.4 °C 34750.5 hPa SSW 9 km/h 9 km/h 38 % 0 mm 53.0 W/m2 SCT
18:31 -7.6 °C -15.7 °C 34750.5 hPa SW 20.9 km/h 20.9 km/h 38 % 0 mm 44.0 W/m2 SCT
18:36 -7.6 °C -15.7 °C 34750.5 hPa South 9 km/h 9 km/h 38 % 0 mm 33.0 W/m2 BKN
18:41 -7.9 °C -15.8 °C 34750.5 hPa SSW 6 km/h 6 km/h 39 % 0 mm 23.0 W/m2 BKN
18:52 -9.1 °C -16.5 °C 34750.5 hPa SSW 6 km/h 6 km/h 41 % 0 mm 11.0 W/m2 BKN
18:57 -9.4 °C -16.8 °C 34750.5 hPa SSW 9 km/h 9 km/h 41 % 0 mm 9.0 W/m2 BKN
19:03 -9.8 °C -16.8 °C 34750.5 hPa SSW 9 km/h 9 km/h 42 % 0 mm 7.0 W/m2 BKN
19:07 -10.1 °C -17.1 °C 34750.5 hPa SSW 3.1 km/h   42 % 0 mm 5.0 W/m2 OVC
19:13 -10.4 °C -17.2 °C 34750.5 hPa Calm     43 % 0 mm 0.0 W/m2 OVC
19:18 -10.4 °C -17.1 °C 34750.5 hPa Calm     44 % 0 mm 0.0 W/m2 CLR
19:23 -10.7 °C -17.2 °C 34750.5 hPa Calm     45 % 0 mm 0.0 W/m2 CLR
19:28 -11 °C -17.4 °C 34750.5 hPa Calm     45 % 0 mm 0.0 W/m2 CLR
19:33 -11 °C -17.3 °C 34750.5 hPa Calm     46 % 0 mm 0.0 W/m2 CLR
19:38 -11.3 °C -17.6 °C 34760.7 hPa Calm     46 % 0 mm 0.0 W/m2 CLR
19:43 -11.3 °C -17.4 °C 34760.7 hPa Calm     47 % 0 mm 0.0 W/m2 CLR
19:48 -11.3 °C -17.4 °C 34760.7 hPa Calm     47 % 0 mm 0.0 W/m2 CLR
19:53 -11.6 °C -17.5 °C 34760.7 hPa Calm     48 % 0 mm 0.0 W/m2 CLR
19:58 -11.6 °C -17.3 °C 34760.7 hPa Calm     49 % 0 mm 0.0 W/m2 CLR
20:03 -11.9 °C -17.4 °C 34760.7 hPa Calm     50 % 0 mm 0.0 W/m2 CLR
20:08 -11.9 °C -17.4 °C 34760.7 hPa Calm     50 % 0 mm 0.0 W/m2 CLR
20:13 -12.2 °C -17.6 °C 34760.7 hPa Calm     51 % 0 mm 0.0 W/m2 CLR
20:18 -12.2 °C -17.4 °C 34760.7 hPa Calm     52 % 0 mm 0.0 W/m2 CLR
20:23 -12.6 °C -17.6 °C 34760.7 hPa Calm     53 % 0 mm 0.0 W/m2 CLR
20:28 -12.6 °C -17.4 °C 34774.2 hPa Calm     54 % 0 mm 0.0 W/m2 CLR
20:33 -12.6 °C -17.4 °C 34774.2 hPa Calm     54 % 0 mm 0.0 W/m2 CLR
20:38 -12.8 °C -17.7 °C 34774.2 hPa Calm     54 % 0 mm 0.0 W/m2 CLR
20:43 -12.8 °C -17.7 °C 34774.2 hPa Calm     54 % 0 mm 0.0 W/m2 CLR
20:48 -12.8 °C -17.6 °C 34774.2 hPa Calm     55 % 0 mm 0.0 W/m2 CLR
20:53 -12.8 °C -17.6 °C 34774.2 hPa Calm     55 % 0 mm 0.0 W/m2 CLR
20:58 -13.2 °C -17.9 °C 34774.2 hPa Calm     55 % 0 mm 0.0 W/m2 CLR
21:03 -13.2 °C -17.6 °C 34774.2 hPa Calm     57 % 0 mm 0.0 W/m2 CLR
21:08 -13.2 °C -17.6 °C 34774.2 hPa Calm     57 % 0 mm 0.0 W/m2 CLR
21:13 -13.2 °C -17.4 °C 34774.2 hPa Calm     58 % 0 mm 0.0 W/m2 CLR
21:18 -12.8 °C -17.1 °C 34774.2 hPa Calm     59 % 0 mm 0.0 W/m2 CLR
21:23 -12.6 °C -16.8 °C 34774.2 hPa Calm     59 % 0 mm 0.0 W/m2 CLR
21:28 -12.6 °C -16.8 °C 34774.2 hPa Calm     59 % 0 mm 0.0 W/m2 CLR
21:33 -12.6 °C -16.8 °C 34774.2 hPa Calm     59 % 0 mm 0.0 W/m2 CLR
21:38 -12.6 °C -16.8 °C 34774.2 hPa Calm     59 % 0 mm 0.0 W/m2 CLR
21:43 -12.6 °C -16.6 °C 34774.2 hPa Calm     60 % 0 mm 0.0 W/m2 CLR
21:48 -12.8 °C -17.1 °C 34774.2 hPa Calm     59 % 0 mm 0.0 W/m2 CLR
21:53 -12.6 °C -16.6 °C 34774.2 hPa Calm     60 % 0 mm 0.0 W/m2 CLR
21:58 -12.6 °C -16.6 °C 34774.2 hPa Calm     60 % 0 mm 0.0 W/m2 CLR
22:03 -12.8 °C -16.9 °C 34774.2 hPa Calm     60 % 0 mm 0.0 W/m2 CLR
22:08 -12.8 °C -16.9 °C 34774.2 hPa Calm     60 % 0 mm 0.0 W/m2 CLR
22:13 -12.8 °C -16.9 °C 34774.2 hPa Calm     60 % 0 mm 0.0 W/m2 CLR
22:18 -12.8 °C -16.9 °C 34774.2 hPa Calm     60 % 0 mm 0.0 W/m2 CLR
22:19 -12.8 °C -16.9 °C 34774.2 hPa Calm     60 % 0 mm 0.0 W/m2 CLR
22:24 -12.8 °C -16.9 °C 34774.2 hPa Calm     60 % 0 mm 0.0 W/m2 CLR
22:29 -12.8 °C -16.9 °C 34774.2 hPa Calm     60 % 0 mm 0.0 W/m2 CLR
22:34 -13.2 °C -17.2 °C 34774.2 hPa Calm     60 % 0 mm 0.0 W/m2 CLR
22:39 -13.2 °C -17.3 °C 34774.2 hPa Calm     59 % 0 mm 0.0 W/m2 CLR
22:44 -13.2 °C -17.4 °C 34784.4 hPa Calm     58 % 0 mm 0.0 W/m2 CLR
22:49 -13.2 °C -17.7 °C 34784.4 hPa Calm     56 % 0 mm 0.0 W/m2 CLR
22:54 -13.2 °C -17.7 °C 34784.4 hPa Calm     56 % 0 mm 0.0 W/m2 CLR
22:59 -13.4 °C -18 °C 34784.4 hPa Calm     56 % 0 mm 0.0 W/m2 CLR
23:04 -13.4 °C -18.2 °C 34784.4 hPa Calm     55 % 0 mm 0.0 W/m2 CLR
23:09 -13.4 °C -18.2 °C 34784.4 hPa Calm     55 % 0 mm 0.0 W/m2 CLR
23:14 -13.4 °C -18.2 °C 34784.4 hPa Calm     55 % 0 mm 0.0 W/m2 CLR
23:19 -13.4 °C -18.2 °C 34784.4 hPa Calm     55 % 0 mm 0.0 W/m2 CLR
23:24 -13.8 °C -18.4 °C 34784.4 hPa Calm     55 % 0 mm 0.0 W/m2 CLR
23:29 -13.8 °C -18.6 °C 34797.9 hPa Calm     54 % 0 mm 0.0 W/m2 CLR
23:34 -13.8 °C -18.4 °C 34797.9 hPa Calm     55 % 0 mm 0.0 W/m2 CLR
23:39 -13.8 °C -18.4 °C 34797.9 hPa Calm     55 % 0 mm 0.0 W/m2 CLR
23:44 -13.8 °C -18.3 °C 34797.9 hPa Calm     56 % 0 mm 0.0 W/m2 CLR
23:49 -14.1 °C -18.5 °C 34797.9 hPa Calm     57 % 0 mm 0.0 W/m2 CLR
23:54 -14.1 °C -18.6 °C 34797.9 hPa Calm     56 % 0 mm 0.0 W/m2 CLR
23:59 -14.1 °C -18.5 °C 34797.9 hPa Calm     57 % 0 mm 0.0 W/m2 CLR
Lo Temps de Massalio
Compliments of Weather Underground - 1.25 mb